createdAt,value
2022-12-04T00:00:49.680Z,928.47
2022-12-04T00:01:49.609Z,928.48
2022-12-04T00:02:51.713Z,928.45
2022-12-04T00:03:49.592Z,928.49
2022-12-04T00:04:49.665Z,928.51
2022-12-04T00:05:50.483Z,928.54
2022-12-04T00:06:53.990Z,928.63
2022-12-04T00:07:51.173Z,928.56
2022-12-04T00:08:49.500Z,928.59
2022-12-04T00:09:49.516Z,928.59
2022-12-04T00:10:49.495Z,928.61
2022-12-04T00:11:49.465Z,928.62
2022-12-04T00:12:50.253Z,928.62
2022-12-04T00:13:52.536Z,928.63
2022-12-04T00:15:23.921Z,928.63
2022-12-04T00:15:49.592Z,928.66
2022-12-04T00:16:50.479Z,928.63
2022-12-04T00:17:49.431Z,928.67
2022-12-04T00:18:49.428Z,928.69
2022-12-04T00:19:49.353Z,928.67
2022-12-04T00:20:49.388Z,928.70
2022-12-04T00:21:50.065Z,928.70
2022-12-04T00:22:50.252Z,928.70
2022-12-04T00:23:49.355Z,928.71
2022-12-04T00:24:50.125Z,928.71
2022-12-04T00:25:49.277Z,928.69
2022-12-04T00:26:49.325Z,928.70
2022-12-04T00:27:49.308Z,928.72
2022-12-04T00:28:49.258Z,928.74
2022-12-04T00:29:49.298Z,928.68
2022-12-04T00:30:49.264Z,928.71
2022-12-04T00:31:52.682Z,928.69
2022-12-04T00:32:49.253Z,928.73
2022-12-04T00:33:49.207Z,928.77
2022-12-04T00:34:49.245Z,928.77
2022-12-04T00:35:49.950Z,928.71
2022-12-04T00:36:49.210Z,928.74
2022-12-04T00:37:49.193Z,928.75
2022-12-04T00:38:49.164Z,928.76
2022-12-04T00:39:49.936Z,928.75
2022-12-04T00:40:49.889Z,928.75
2022-12-04T00:41:51.443Z,928.74
2022-12-04T00:42:49.127Z,928.77
2022-12-04T00:43:49.108Z,928.81
2022-12-04T00:44:51.254Z,928.77
2022-12-04T00:45:50.347Z,928.81
2022-12-04T00:46:55.003Z,928.81
2022-12-04T00:47:49.859Z,928.80
2022-12-04T00:48:49.037Z,928.80
2022-12-04T00:49:49.065Z,928.69
2022-12-04T00:50:50.952Z,928.76
2022-12-04T00:51:50.267Z,928.76
2022-12-04T00:52:48.997Z,928.79
2022-12-04T00:53:50.042Z,928.79
2022-12-04T00:54:48.977Z,928.75
2022-12-04T00:55:58.656Z,928.75
2022-12-04T00:56:57.025Z,928.78
2022-12-04T00:58:00.026Z,928.79
2022-12-04T00:58:48.917Z,928.76
2022-12-04T00:59:49.884Z,928.76
2022-12-04T01:00:48.991Z,928.77
2022-12-04T01:01:48.953Z,928.79
2022-12-04T01:02:48.908Z,928.73
2022-12-04T01:03:51.388Z,928.80
2022-12-04T01:04:48.888Z,928.71
2022-12-04T01:05:49.622Z,928.70
2022-12-04T01:06:48.864Z,928.72
2022-12-04T01:07:48.897Z,928.71
2022-12-04T01:08:48.831Z,928.71
2022-12-04T01:09:49.572Z,928.73
2022-12-04T01:10:48.807Z,928.74
2022-12-04T01:11:49.759Z,928.73
2022-12-04T01:12:48.812Z,928.72
2022-12-04T01:13:48.827Z,928.75
2022-12-04T01:14:48.758Z,928.78
2022-12-04T01:15:48.750Z,928.77
2022-12-04T01:16:52.181Z,928.79
2022-12-04T01:17:49.412Z,928.81
2022-12-04T01:18:48.722Z,928.81
2022-12-04T01:19:48.766Z,928.79
2022-12-04T01:20:48.667Z,928.82
2022-12-04T01:21:48.666Z,928.86
2022-12-04T01:22:49.461Z,928.85
2022-12-04T01:23:51.416Z,928.85
2022-12-04T01:24:48.665Z,928.84
2022-12-04T01:25:49.423Z,928.83
2022-12-04T01:26:56.573Z,928.81
2022-12-04T01:27:51.047Z,928.78
2022-12-04T01:28:49.342Z,928.75
2022-12-04T01:29:50.267Z,928.68
2022-12-04T01:30:48.580Z,928.71
2022-12-04T01:31:48.637Z,928.67
2022-12-04T01:32:48.535Z,928.68
2022-12-04T01:33:54.229Z,928.65
2022-12-04T01:34:49.626Z,928.62
2022-12-04T01:35:49.454Z,928.71
2022-12-04T01:36:49.282Z,928.66
2022-12-04T01:37:49.169Z,928.61
2022-12-04T01:38:49.421Z,928.61
2022-12-04T01:39:48.539Z,928.64
2022-12-04T01:40:48.465Z,928.66
2022-12-04T01:41:48.528Z,928.67
2022-12-04T01:42:48.436Z,928.70
2022-12-04T01:43:48.426Z,928.73
2022-12-04T01:44:48.959Z,928.70
2022-12-04T01:45:49.246Z,928.73
2022-12-04T01:46:48.358Z,928.72
2022-12-04T01:47:48.415Z,928.71
2022-12-04T01:48:50.417Z,928.73
2022-12-04T01:49:48.385Z,928.60
2022-12-04T01:50:49.049Z,928.67
2022-12-04T01:51:48.374Z,928.63
2022-12-04T01:52:48.311Z,928.56
2022-12-04T01:53:48.375Z,928.61
2022-12-04T01:54:48.911Z,928.62
2022-12-04T01:55:51.516Z,928.59
2022-12-04T01:56:48.302Z,928.59
2022-12-04T01:57:48.382Z,928.61
2022-12-04T01:58:48.905Z,928.59
2022-12-04T01:59:48.982Z,928.59
2022-12-04T02:00:51.707Z,928.53
2022-12-04T02:01:48.273Z,928.52
2022-12-04T02:02:50.530Z,928.53
2022-12-04T02:03:48.281Z,928.48
2022-12-04T02:04:48.166Z,928.44
2022-12-04T02:05:48.169Z,928.43
2022-12-04T02:06:49.745Z,928.42
2022-12-04T02:07:50.541Z,928.41
2022-12-04T02:08:51.086Z,928.37
2022-12-04T02:09:48.862Z,928.34
2022-12-04T02:10:48.928Z,928.33
2022-12-04T02:11:49.179Z,928.31
2022-12-04T02:12:48.106Z,928.33
2022-12-04T02:13:48.136Z,928.30
2022-12-04T02:14:48.857Z,928.31
2022-12-04T02:15:48.100Z,928.29
2022-12-04T02:16:48.950Z,928.30
2022-12-04T02:17:48.334Z,928.29
2022-12-04T02:18:47.992Z,928.28
2022-12-04T02:19:48.029Z,928.28
2022-12-04T02:20:49.185Z,928.24
2022-12-04T02:21:51.610Z,928.21
2022-12-04T02:22:48.016Z,928.19
2022-12-04T02:23:47.965Z,928.19
2022-12-04T02:24:50.348Z,928.27
2022-12-04T02:25:47.960Z,928.19
2022-12-04T02:26:49.111Z,928.22
2022-12-04T02:27:47.964Z,928.18
2022-12-04T02:28:48.623Z,928.19
2022-12-04T02:29:48.944Z,928.21
2022-12-04T02:30:48.691Z,928.16
2022-12-04T02:31:48.470Z,928.14
2022-12-04T02:32:47.834Z,928.14
2022-12-04T02:33:48.604Z,928.13
2022-12-04T02:34:47.855Z,928.11
2022-12-04T02:35:47.894Z,928.15
2022-12-04T02:36:47.885Z,928.17
2022-12-04T02:37:48.570Z,928.18
2022-12-04T02:38:48.443Z,928.15
2022-12-04T02:39:48.449Z,928.16
2022-12-04T02:40:47.797Z,928.14
2022-12-04T02:41:47.820Z,928.11
2022-12-04T02:42:47.733Z,928.12
2022-12-04T02:43:47.756Z,928.09
2022-12-04T02:44:48.409Z,928.09
2022-12-04T02:45:47.767Z,928.09
2022-12-04T02:46:47.717Z,928.04
2022-12-04T02:47:48.483Z,928.05
2022-12-04T02:48:48.378Z,927.98
2022-12-04T02:49:47.673Z,928.00
2022-12-04T02:50:48.440Z,927.98
2022-12-04T02:51:47.696Z,927.92
2022-12-04T02:52:47.639Z,927.87
2022-12-04T02:53:47.650Z,927.90
2022-12-04T02:54:50.570Z,927.89
2022-12-04T02:55:49.751Z,927.90
2022-12-04T02:56:49.073Z,927.89
2022-12-04T02:57:47.635Z,927.83
2022-12-04T02:58:47.564Z,927.86
2022-12-04T02:59:48.275Z,927.88
2022-12-04T03:00:47.504Z,927.83
2022-12-04T03:01:48.231Z,927.82
2022-12-04T03:02:47.627Z,927.83
2022-12-04T03:03:47.528Z,927.84
2022-12-04T03:04:48.251Z,927.81
2022-12-04T03:05:47.511Z,927.81
2022-12-04T03:06:47.478Z,927.80
2022-12-04T03:07:48.232Z,927.82
2022-12-04T03:08:48.223Z,927.76
2022-12-04T03:09:47.501Z,927.78
2022-12-04T03:10:48.285Z,927.75
2022-12-04T03:11:48.461Z,927.71
2022-12-04T03:12:48.120Z,927.69
2022-12-04T03:13:48.166Z,927.70
2022-12-04T03:14:47.380Z,927.67
2022-12-04T03:15:56.179Z,927.69
2022-12-04T03:16:55.471Z,927.65
2022-12-04T03:17:56.918Z,927.63
2022-12-04T03:19:05.681Z,927.64
2022-12-04T03:19:47.337Z,927.60
2022-12-04T03:54:05.612Z,927.62
2022-12-04T03:54:11.556Z,927.32
2022-12-04T04:01:05.535Z,927.33
2022-12-04T04:02:06.644Z,927.30
2022-12-04T04:03:05.912Z,927.27
2022-12-04T04:04:07.551Z,927.22
2022-12-04T04:05:15.211Z,927.21
2022-12-04T04:06:14.966Z,927.22
2022-12-04T04:07:05.814Z,927.19
2022-12-04T04:08:05.826Z,927.15
2022-12-04T04:09:05.786Z,927.15
2022-12-04T04:10:05.704Z,927.13
2022-12-04T04:11:06.462Z,927.15
2022-12-04T04:12:05.746Z,927.11
2022-12-04T04:13:06.429Z,927.15
2022-12-04T04:14:05.668Z,927.14
2022-12-04T04:15:05.703Z,927.12
2022-12-04T04:16:05.835Z,927.12
2022-12-04T04:17:05.666Z,927.09
2022-12-04T04:18:06.408Z,927.11
2022-12-04T04:19:05.688Z,927.10
2022-12-04T04:20:05.633Z,927.09
2022-12-04T04:21:05.684Z,927.12
2022-12-04T04:22:06.524Z,927.12
2022-12-04T04:23:05.609Z,927.12
2022-12-04T04:24:05.610Z,927.14
2022-12-04T04:25:05.726Z,927.14
2022-12-04T04:26:05.531Z,927.12
2022-12-04T04:27:05.596Z,927.12
2022-12-04T04:28:05.577Z,927.17
2022-12-04T04:29:05.553Z,927.08
2022-12-04T04:30:05.564Z,927.10
2022-12-04T04:31:05.581Z,927.07
2022-12-04T04:32:05.508Z,927.07
2022-12-04T04:33:05.490Z,927.03
2022-12-04T04:34:05.448Z,927.05
2022-12-04T04:35:08.738Z,927.03
2022-12-04T04:36:05.467Z,927.06
2022-12-04T04:37:05.469Z,927.00
2022-12-04T04:38:06.428Z,927.01
2022-12-04T04:39:05.410Z,927.02
2022-12-04T04:40:05.395Z,926.96
2022-12-04T04:41:05.391Z,926.95
2022-12-04T04:42:06.133Z,926.94
2022-12-04T04:43:05.967Z,926.95
2022-12-04T04:44:06.106Z,926.92
2022-12-04T04:45:05.358Z,926.91
2022-12-04T04:46:05.382Z,926.93
2022-12-04T04:47:05.346Z,926.92
2022-12-04T04:48:06.259Z,926.89
2022-12-04T04:49:05.335Z,926.91
2022-12-04T04:50:05.283Z,926.90
2022-12-04T04:51:05.287Z,926.87
2022-12-04T04:52:05.292Z,926.88
2022-12-04T04:53:05.330Z,926.85
2022-12-04T04:54:05.289Z,926.85
2022-12-04T04:55:05.265Z,926.82
2022-12-04T04:56:05.962Z,926.81
2022-12-04T04:57:08.461Z,926.80
2022-12-04T04:58:05.248Z,926.78
2022-12-04T04:59:05.229Z,926.83
2022-12-04T05:00:06.103Z,926.76
2022-12-04T05:01:08.362Z,926.82
2022-12-04T05:02:05.210Z,926.80
2022-12-04T05:03:05.310Z,926.79
2022-12-04T05:04:05.852Z,926.78
2022-12-04T05:05:05.126Z,926.79
2022-12-04T05:06:05.132Z,926.80
2022-12-04T05:07:05.135Z,926.76
2022-12-04T05:08:05.153Z,926.76
2022-12-04T05:09:05.122Z,926.74
2022-12-04T05:10:05.602Z,926.76
2022-12-04T05:11:06.249Z,926.74
2022-12-04T05:12:06.944Z,926.72
2022-12-04T05:13:05.792Z,926.74
2022-12-04T05:14:05.060Z,926.74
2022-12-04T05:15:05.967Z,926.75
2022-12-04T05:16:05.039Z,926.76
2022-12-04T05:17:09.244Z,926.74
2022-12-04T05:18:05.010Z,926.73
2022-12-04T05:19:04.998Z,926.74
2022-12-04T05:20:06.001Z,926.72
2022-12-04T05:21:05.704Z,926.71
2022-12-04T05:22:07.595Z,926.72
2022-12-04T05:23:04.998Z,926.74
2022-12-04T05:24:04.947Z,926.74
2022-12-04T05:25:05.472Z,926.74
2022-12-04T05:26:04.853Z,926.73
2022-12-04T05:27:05.491Z,926.75
2022-12-04T05:28:04.861Z,926.71
2022-12-04T05:29:04.830Z,926.73
2022-12-04T05:30:04.838Z,926.75
2022-12-04T05:31:04.924Z,926.70
2022-12-04T05:32:05.521Z,926.71
2022-12-04T05:33:04.854Z,926.69
2022-12-04T05:34:04.788Z,926.67
2022-12-04T05:35:10.607Z,926.67
2022-12-04T05:36:04.786Z,926.66
2022-12-04T05:37:04.800Z,926.65
2022-12-04T05:38:17.493Z,926.67
2022-12-04T05:39:15.594Z,926.67
2022-12-04T05:40:04.739Z,926.72
2022-12-04T05:41:04.762Z,926.73
2022-12-04T05:42:04.685Z,926.74
2022-12-04T05:43:04.702Z,926.72
2022-12-04T05:44:05.825Z,926.74
2022-12-04T05:45:04.728Z,926.77
2022-12-04T05:46:06.201Z,926.76
2022-12-04T05:47:04.708Z,926.73
2022-12-04T05:48:04.644Z,926.73
2022-12-04T05:49:04.642Z,926.75
2022-12-04T05:50:04.643Z,926.73
2022-12-04T05:51:04.649Z,926.73
2022-12-04T05:52:04.623Z,926.73
2022-12-04T05:53:04.598Z,926.73
2022-12-04T05:54:04.591Z,926.72
2022-12-04T05:55:04.593Z,926.74
2022-12-04T05:56:04.585Z,926.70
2022-12-04T05:57:06.681Z,926.69
2022-12-04T05:58:04.508Z,926.66
2022-12-04T05:59:05.482Z,926.67
2022-12-04T06:00:04.490Z,926.65
2022-12-04T06:01:05.252Z,926.61
2022-12-04T06:02:04.548Z,926.61
2022-12-04T06:03:04.507Z,926.60
2022-12-04T06:04:04.456Z,926.56
2022-12-04T06:05:04.521Z,926.54
2022-12-04T06:06:04.474Z,926.54
2022-12-04T06:07:04.459Z,926.52
2022-12-04T06:08:04.482Z,926.54
2022-12-04T06:09:04.440Z,926.54
2022-12-04T06:10:04.373Z,926.52
2022-12-04T06:11:04.409Z,926.50
2022-12-04T06:12:07.075Z,926.53
2022-12-04T06:13:04.356Z,926.53
2022-12-04T06:14:04.360Z,926.49
2022-12-04T06:15:04.396Z,926.50
2022-12-04T06:16:05.176Z,926.46
2022-12-04T06:17:05.776Z,926.53
2022-12-04T06:18:04.319Z,926.51
2022-12-04T06:19:05.258Z,926.55
2022-12-04T06:20:10.901Z,926.51
2022-12-04T06:21:04.972Z,926.52
2022-12-04T06:22:04.307Z,926.49
2022-12-04T06:23:05.412Z,926.52
2022-12-04T06:24:04.268Z,926.51
2022-12-04T06:25:04.982Z,926.53
2022-12-04T06:26:07.097Z,926.51
2022-12-04T06:27:26.776Z,926.52
2022-12-04T06:28:04.249Z,926.55
2022-12-04T06:29:04.184Z,926.55
2022-12-04T06:30:04.198Z,926.57
2022-12-04T06:31:04.155Z,926.57
2022-12-04T06:32:04.280Z,926.55
2022-12-04T06:33:04.129Z,926.58
2022-12-04T06:34:04.187Z,926.55
2022-12-04T06:35:04.125Z,926.57
2022-12-04T06:36:04.135Z,926.57
2022-12-04T06:37:04.095Z,926.59
2022-12-04T06:38:04.070Z,926.57
2022-12-04T06:39:04.893Z,926.61
2022-12-04T06:40:06.569Z,926.60
2022-12-04T06:41:11.716Z,926.63
2022-12-04T06:42:04.026Z,926.61
2022-12-04T06:43:12.686Z,926.64
2022-12-04T06:44:04.038Z,926.64
2022-12-04T06:45:11.748Z,926.62
2022-12-04T06:46:04.117Z,926.60
2022-12-04T06:47:03.977Z,926.65
2022-12-04T06:48:04.522Z,926.59
2022-12-04T06:49:03.947Z,926.56
2022-12-04T06:50:05.720Z,926.59
2022-12-04T06:51:03.919Z,926.55
2022-12-04T06:52:03.977Z,926.57
2022-12-04T06:53:08.360Z,926.56
2022-12-04T06:54:04.551Z,926.58
2022-12-04T06:55:03.927Z,926.61
2022-12-04T06:56:03.909Z,926.62
2022-12-04T06:57:05.039Z,926.63
2022-12-04T06:58:03.883Z,926.61
2022-12-04T06:59:03.842Z,926.66
2022-12-04T07:00:03.846Z,926.68
2022-12-04T07:01:03.902Z,926.65
2022-12-04T07:02:03.930Z,926.66
2022-12-04T07:03:03.789Z,926.66
2022-12-04T07:04:04.773Z,926.64
2022-12-04T07:05:03.823Z,926.65
2022-12-04T07:06:03.778Z,926.68
2022-12-04T07:07:03.753Z,926.72
2022-12-04T07:08:03.847Z,926.70
2022-12-04T07:09:04.430Z,926.72
2022-12-04T07:10:04.718Z,926.67
2022-12-04T07:11:03.761Z,926.72
2022-12-04T07:12:05.652Z,926.71
2022-12-04T07:13:04.208Z,926.68
2022-12-04T07:14:04.620Z,926.72
2022-12-04T07:15:06.224Z,926.71
2022-12-04T07:16:04.318Z,926.67
2022-12-04T07:17:03.672Z,926.66
2022-12-04T07:18:04.228Z,926.66
2022-12-04T07:19:04.753Z,926.66
2022-12-04T07:20:03.744Z,926.66
2022-12-04T07:21:03.602Z,926.69
2022-12-04T07:22:03.607Z,926.67
2022-12-04T07:23:07.493Z,926.70
2022-12-04T07:24:03.577Z,926.71
2022-12-04T07:25:03.913Z,926.68
2022-12-04T07:26:03.583Z,926.65
2022-12-04T07:27:04.214Z,926.69
2022-12-04T07:28:04.925Z,926.67
2022-12-04T07:29:03.830Z,926.70
2022-12-04T07:30:03.856Z,926.73
2022-12-04T07:31:03.520Z,926.70
2022-12-04T07:32:03.755Z,926.73
2022-12-04T07:33:05.568Z,926.73
2022-12-04T07:34:03.466Z,926.71
2022-12-04T07:35:04.222Z,926.71
2022-12-04T07:36:03.541Z,926.76
2022-12-04T07:37:03.501Z,926.73
2022-12-04T07:38:04.082Z,926.75
2022-12-04T07:39:03.457Z,926.70
2022-12-04T07:40:04.352Z,926.71
2022-12-04T07:41:03.483Z,926.69
2022-12-04T07:42:03.495Z,926.71
2022-12-04T07:43:04.153Z,926.71
2022-12-04T07:44:03.488Z,926.71
2022-12-04T07:45:03.490Z,926.72
2022-12-04T07:46:03.740Z,926.74
2022-12-04T07:47:03.375Z,926.76
2022-12-04T07:48:05.244Z,926.78
2022-12-04T07:49:03.321Z,926.76
2022-12-04T07:50:03.342Z,926.78
2022-12-04T07:51:03.302Z,926.82
2022-12-04T07:52:03.449Z,926.82
2022-12-04T07:53:03.443Z,926.81
2022-12-04T07:54:04.559Z,926.81
2022-12-04T07:55:03.368Z,926.82
2022-12-04T07:56:03.379Z,926.87
2022-12-04T07:57:05.215Z,926.87
2022-12-04T07:58:03.303Z,926.88
2022-12-04T07:59:03.902Z,926.89
2022-12-04T08:00:03.157Z,926.92
2022-12-04T08:01:11.112Z,926.90
2022-12-04T08:02:03.159Z,926.89
2022-12-04T08:03:04.076Z,926.94
2022-12-04T08:04:03.292Z,926.93
2022-12-04T08:05:03.529Z,926.94
2022-12-04T08:06:03.236Z,926.98
2022-12-04T08:07:03.084Z,926.97
2022-12-04T08:08:03.090Z,926.96
2022-12-04T08:09:09.233Z,926.98
2022-12-04T08:10:03.055Z,926.99
2022-12-04T08:11:03.064Z,927.00
2022-12-04T08:12:03.041Z,927.03
2022-12-04T08:13:03.831Z,926.98
2022-12-04T08:23:53.016Z,927.13
2022-12-04T08:25:11.052Z,927.15
2022-12-04T08:26:04.030Z,927.17
2022-12-04T08:26:53.938Z,927.17
2022-12-04T08:27:53.942Z,927.21
2022-12-04T08:28:53.932Z,927.23
2022-12-04T08:29:55.248Z,927.26
2022-12-04T08:30:53.957Z,927.29
2022-12-04T08:31:53.900Z,927.30
2022-12-04T08:32:53.866Z,927.31
2022-12-04T08:33:53.886Z,927.30
2022-12-04T08:34:56.101Z,927.34
2022-12-04T08:35:53.887Z,927.34
2022-12-04T08:36:55.477Z,927.33
2022-12-04T08:37:53.825Z,927.35
2022-12-04T08:38:53.798Z,927.42
2022-12-04T08:39:54.120Z,927.40
2022-12-04T08:40:53.780Z,927.39
2022-12-04T08:41:57.098Z,927.38
2022-12-04T08:42:54.347Z,927.41
2022-12-04T08:43:53.740Z,927.44
2022-12-04T08:44:53.765Z,927.45
2022-12-04T08:45:53.786Z,927.40
2022-12-04T08:46:53.906Z,927.46
2022-12-04T08:47:53.713Z,927.47
2022-12-04T08:48:53.706Z,927.49
2022-12-04T08:49:54.128Z,927.49
2022-12-04T08:50:53.661Z,927.51
2022-12-04T08:51:53.709Z,927.52
2022-12-04T08:52:53.693Z,927.53
2022-12-04T08:53:53.651Z,927.54
2022-12-04T08:54:53.626Z,927.53
2022-12-04T08:55:53.611Z,927.58
2022-12-04T08:56:55.134Z,927.59
2022-12-04T08:57:53.600Z,927.64
2022-12-04T08:58:54.386Z,927.65
2022-12-04T08:59:54.109Z,927.69
2022-12-04T09:00:53.537Z,927.73
2022-12-04T09:01:53.650Z,927.72
2022-12-04T09:02:53.541Z,927.76
2022-12-04T09:03:53.565Z,927.79
2022-12-04T09:04:54.671Z,927.76
2022-12-04T09:05:53.506Z,927.78
2022-12-04T09:07:02.884Z,927.83
2022-12-04T09:08:02.306Z,927.82
2022-12-04T09:08:54.353Z,927.87
2022-12-04T09:09:54.410Z,927.85
2022-12-04T09:10:53.473Z,927.92
2022-12-04T09:11:53.465Z,927.89
2022-12-04T09:12:55.539Z,927.93
2022-12-04T09:13:53.438Z,927.91
2022-12-04T09:14:55.761Z,927.90
2022-12-04T09:15:54.167Z,927.89
2022-12-04T09:16:54.278Z,927.88
2022-12-04T09:17:55.309Z,927.87
2022-12-04T09:18:53.340Z,927.86
2022-12-04T09:19:59.275Z,927.84
2022-12-04T09:23:24.662Z,927.87
2022-12-04T09:24:30.371Z,927.87
2022-12-04T09:25:25.629Z,927.84
2022-12-04T09:26:27.774Z,927.85
2022-12-04T09:27:26.484Z,927.89
2022-12-04T09:28:25.649Z,927.94
2022-12-04T09:29:25.609Z,927.91
2022-12-04T09:30:25.604Z,927.93
2022-12-04T09:31:48.441Z,927.98
2022-12-04T09:32:25.553Z,927.98
2022-12-04T09:33:25.594Z,928.04
2022-12-04T09:34:25.574Z,928.05
2022-12-04T09:35:25.543Z,928.04
2022-12-04T09:36:27.225Z,928.05
2022-12-04T09:37:25.580Z,928.08
2022-12-04T09:38:25.484Z,928.04
2022-12-04T09:39:25.520Z,928.02
2022-12-04T09:40:25.783Z,928.07
2022-12-04T09:41:25.489Z,928.05
2022-12-04T09:42:26.384Z,928.08
2022-12-04T09:43:25.479Z,928.08
2022-12-04T09:44:28.978Z,928.10
2022-12-04T09:45:26.208Z,928.10
2022-12-04T09:46:25.448Z,928.10
2022-12-04T09:47:25.418Z,928.12
2022-12-04T09:48:26.282Z,928.13
2022-12-04T09:49:26.854Z,928.11
2022-12-04T09:50:25.452Z,928.11
2022-12-04T09:51:25.454Z,928.11
2022-12-04T09:52:25.372Z,928.16
2022-12-04T09:53:26.264Z,928.16
2022-12-04T09:54:25.338Z,928.16
2022-12-04T09:55:25.315Z,928.16
2022-12-04T09:56:25.295Z,928.16
2022-12-04T09:57:25.354Z,928.20
2022-12-04T09:58:28.636Z,928.22
2022-12-04T09:59:25.801Z,928.22
2022-12-04T10:00:25.279Z,928.22
2022-12-04T10:01:25.247Z,928.24
2022-12-04T10:02:25.367Z,928.27
2022-12-04T10:03:28.368Z,928.28
2022-12-04T10:04:25.294Z,928.26
2022-12-04T10:05:25.947Z,928.23
2022-12-04T10:06:25.187Z,928.22
2022-12-04T10:07:25.176Z,928.24
2022-12-04T10:08:26.100Z,928.23
2022-12-04T10:09:25.133Z,928.27
2022-12-04T10:10:25.129Z,928.27
2022-12-04T10:11:30.697Z,928.26
2022-12-04T10:12:26.086Z,928.32
2022-12-04T10:13:25.295Z,928.36
2022-12-04T10:14:25.100Z,928.43
2022-12-04T10:15:25.078Z,928.42
2022-12-04T10:16:25.079Z,928.39
2022-12-04T10:17:32.369Z,928.41
2022-12-04T10:18:25.061Z,928.41
2022-12-04T10:19:25.076Z,928.43
2022-12-04T10:20:25.028Z,928.43
2022-12-04T10:21:25.054Z,928.45
2022-12-04T10:22:25.036Z,928.48
2022-12-04T10:23:26.801Z,928.42
2022-12-04T10:24:25.821Z,928.47
2022-12-04T10:25:27.421Z,928.44
2022-12-04T10:26:24.928Z,928.47
2022-12-04T10:27:25.670Z,928.45
2022-12-04T10:28:32.443Z,928.46
2022-12-04T10:29:24.944Z,928.43
2022-12-04T10:30:24.883Z,928.47
2022-12-04T10:31:25.995Z,928.41
2022-12-04T10:32:24.891Z,928.44
2022-12-04T10:33:24.907Z,928.44
2022-12-04T10:34:24.918Z,928.43
2022-12-04T10:35:24.884Z,928.46
2022-12-04T10:36:24.816Z,928.46
2022-12-04T10:37:24.867Z,928.46
2022-12-04T10:38:25.682Z,928.46
2022-12-04T10:39:24.813Z,928.42
2022-12-04T10:40:24.817Z,928.40
2022-12-04T10:41:24.826Z,928.48
2022-12-04T10:42:27.835Z,928.49
2022-12-04T10:43:24.799Z,928.48
2022-12-04T10:44:24.762Z,928.53
2022-12-04T10:45:25.317Z,928.52
2022-12-04T10:46:25.768Z,928.50
2022-12-04T10:47:24.761Z,928.51
2022-12-04T10:48:24.717Z,928.51
2022-12-04T10:49:24.715Z,928.39
2022-12-04T10:50:24.648Z,928.51
2022-12-04T10:51:25.335Z,928.51
2022-12-04T10:52:24.708Z,928.45
2022-12-04T10:53:24.707Z,928.51
2022-12-04T10:54:24.639Z,928.54
2022-12-04T10:55:25.497Z,928.56
2022-12-04T10:56:24.603Z,928.60
2022-12-04T10:57:25.538Z,928.54
2022-12-04T10:58:25.337Z,928.60
2022-12-04T10:59:25.489Z,928.54
2022-12-04T11:00:24.564Z,928.55
2022-12-04T11:01:28.612Z,928.59
2022-12-04T11:02:25.291Z,928.63
2022-12-04T11:03:24.683Z,928.60
2022-12-04T11:04:25.486Z,928.62
2022-12-04T11:05:24.547Z,928.64
2022-12-04T11:06:24.467Z,928.56
2022-12-04T11:07:24.520Z,928.63
2022-12-04T11:08:24.675Z,928.67
2022-12-04T11:09:24.458Z,928.72
2022-12-04T11:10:25.357Z,928.70
2022-12-04T11:11:24.504Z,928.66
2022-12-04T11:12:24.475Z,928.60
2022-12-04T11:13:24.471Z,928.65
2022-12-04T11:14:24.431Z,928.61
2022-12-04T11:15:24.424Z,928.71
2022-12-04T11:16:26.878Z,928.67
2022-12-04T11:17:26.141Z,928.67
2022-12-04T11:18:24.383Z,928.59
2022-12-04T11:19:25.642Z,928.64
2022-12-04T11:20:24.348Z,928.59
2022-12-04T11:21:24.381Z,928.74
2022-12-04T11:22:25.692Z,928.60
2022-12-04T11:23:24.386Z,928.67
2022-12-04T11:24:24.458Z,928.63
2022-12-04T11:25:32.432Z,928.66
2022-12-04T11:26:32.243Z,928.57
2022-12-04T11:27:25.226Z,928.56
2022-12-04T11:28:41.136Z,928.56
2022-12-04T11:29:25.445Z,928.58
2022-12-04T11:30:24.264Z,928.54
2022-12-04T11:31:24.364Z,928.51
2022-12-04T11:32:24.238Z,928.55
2022-12-04T11:33:24.240Z,928.56
2022-12-04T11:34:24.221Z,928.51
2022-12-04T11:35:24.169Z,928.63
2022-12-04T11:36:33.856Z,928.68
2022-12-04T11:37:31.385Z,928.58
2022-12-04T11:38:32.962Z,928.57
2022-12-04T11:39:31.744Z,928.53
2022-12-04T11:40:31.960Z,928.53
2022-12-04T11:41:35.523Z,928.49
2022-12-04T11:42:32.164Z,928.48
2022-12-04T11:43:32.261Z,928.50
2022-12-04T11:44:31.202Z,928.55
2022-12-04T11:45:33.734Z,928.38
2022-12-04T11:46:32.186Z,928.65
2022-12-04T11:47:33.731Z,928.63
2022-12-04T11:48:32.166Z,928.66
2022-12-04T11:49:33.539Z,928.64
2022-12-04T11:50:33.353Z,928.55
2022-12-04T11:51:32.257Z,928.59
2022-12-04T11:52:32.618Z,928.50
2022-12-04T11:53:34.858Z,928.55
2022-12-04T11:54:33.105Z,928.54
2022-12-04T11:55:33.755Z,928.51
2022-12-04T11:56:33.119Z,928.55
2022-12-04T11:57:23.965Z,928.45
2022-12-04T11:58:39.555Z,928.50
2022-12-04T11:59:23.916Z,928.65
2022-12-04T12:00:24.828Z,928.52
2022-12-04T12:01:37.358Z,928.53
2022-12-04T12:02:35.801Z,928.54
2022-12-04T12:03:31.177Z,928.67
2022-12-04T12:04:32.008Z,928.54
2022-12-04T12:05:24.577Z,928.55
2022-12-04T12:06:23.879Z,928.61
2022-12-04T12:07:24.427Z,928.50
2022-12-04T12:08:23.790Z,928.53
2022-12-04T12:09:25.038Z,928.56
2022-12-04T12:10:23.764Z,928.53
2022-12-04T12:11:23.799Z,928.56
2022-12-04T12:12:23.814Z,928.58
2022-12-04T12:13:23.810Z,928.49
2022-12-04T12:14:26.282Z,928.53
2022-12-04T12:15:24.345Z,928.55
2022-12-04T12:16:23.831Z,928.55
2022-12-04T12:17:24.346Z,928.50
2022-12-04T12:18:24.647Z,928.54
2022-12-04T12:19:23.756Z,928.57
2022-12-04T12:20:23.679Z,928.46
2022-12-04T12:21:23.875Z,928.46
2022-12-04T12:22:24.364Z,928.55
2022-12-04T12:23:23.688Z,928.51
2022-12-04T12:24:23.646Z,928.62
2022-12-04T12:25:23.692Z,928.51
2022-12-04T12:26:23.643Z,928.48
2022-12-04T12:27:24.529Z,928.50
2022-12-04T12:28:23.621Z,928.49
2022-12-04T12:29:25.372Z,928.45
2022-12-04T12:30:26.649Z,928.59
2022-12-04T12:31:23.919Z,928.39
2022-12-04T12:32:24.367Z,928.34
2022-12-04T12:33:23.562Z,928.44
2022-12-04T12:34:24.994Z,928.42
2022-12-04T12:35:25.281Z,928.52
2022-12-04T12:36:29.657Z,928.50
2022-12-04T12:37:24.277Z,928.56
2022-12-04T12:38:23.489Z,928.50
2022-12-04T12:39:23.510Z,928.47
2022-12-04T12:40:24.179Z,928.38
2022-12-04T12:41:24.421Z,928.50
2022-12-04T12:42:23.561Z,928.50
2022-12-04T12:43:23.576Z,928.46
2022-12-04T12:44:23.451Z,928.42
2022-12-04T12:45:23.438Z,928.42
2022-12-04T12:46:24.110Z,928.45
2022-12-04T12:47:24.035Z,928.52
2022-12-04T12:48:24.014Z,928.52
2022-12-04T12:49:23.348Z,928.56
2022-12-04T12:50:37.203Z,928.54
2022-12-04T12:51:30.943Z,928.41
2022-12-04T12:54:08.332Z,928.51
2022-12-04T12:54:58.298Z,928.49
2022-12-04T12:55:35.643Z,928.47
2022-12-04T12:56:38.265Z,928.45
2022-12-04T12:57:36.273Z,928.45
2022-12-04T12:58:35.605Z,928.34
2022-12-04T12:59:36.375Z,928.48
2022-12-04T13:00:46.106Z,928.54
2022-12-04T13:01:35.666Z,928.55
2022-12-04T13:02:35.623Z,928.58
2022-12-04T13:03:37.722Z,928.54
2022-12-04T13:04:36.465Z,928.43
2022-12-04T13:05:35.496Z,928.48
2022-12-04T13:06:35.980Z,928.52
2022-12-04T13:07:36.227Z,928.57
2022-12-04T13:08:35.501Z,928.50
2022-12-04T13:09:35.473Z,928.49
2022-12-04T13:10:35.441Z,928.48
2022-12-04T13:11:35.484Z,928.51
2022-12-04T13:12:35.565Z,928.57
2022-12-04T13:13:35.452Z,928.61
2022-12-04T13:14:35.972Z,928.59
2022-12-04T13:15:35.439Z,928.49
2022-12-04T13:16:43.241Z,928.51
2022-12-04T13:18:06.009Z,928.49
2022-12-04T13:18:35.384Z,928.56
2022-12-04T13:19:36.055Z,928.52
2022-12-04T13:20:36.019Z,928.50